Time;durP1;ratioP1;P1;durP2;ratioP2;P2;SDS_P1;SDS_P2;PMS_P1;PMS_P2;Temp;Humidity;BMP_temperature;BMP_pressure;BME280_temperature;BME280_humidity;BME280_pressure;Samples;Min_cycle;Max_cycle;Signal;HPM_P1;HPM_P2
2022/04/11 00:00:25;;;;;;;11.38;10.27;;;22.00;68.00;;;;;;6258630;28;89239;-72
2022/04/11 00:03:28;;;;;;;11.38;10.18;;;22.00;68.00;;;;;;6259697;28;89312;-71
2022/04/11 00:06:31;;;;;;;11.43;10.23;;;22.00;68.00;;;;;;6256590;28;89160;-72
2022/04/11 00:09:34;;;;;;;11.40;10.30;;;22.00;68.00;;;;;;6260212;28;88367;-72
2022/04/11 00:12:37;;;;;;;11.43;10.32;;;21.90;68.00;;;;;;6254977;28;89503;-72
2022/04/11 00:15:41;;;;;;;11.00;9.90;;;22.00;68.10;;;;;;6255198;28;89469;-72
2022/04/11 00:18:43;;;;;;;11.43;10.32;;;21.90;67.90;;;;;;6259730;28;90130;-72
2022/04/11 00:21:46;;;;;;;10.73;9.73;;;21.90;68.00;;;;;;6259061;27;89414;-72
2022/04/11 00:24:50;;;;;;;11.50;10.40;;;21.90;67.90;;;;;;6247135;28;89158;-72
2022/04/11 00:27:53;;;;;;;11.35;10.25;;;21.90;68.00;;;;;;6257351;28;89114;-72
2022/04/11 00:30:55;;;;;;;11.10;10.00;;;21.90;67.90;;;;;;6257403;28;88256;-72
2022/04/11 00:33:57;;;;;;;11.15;10.05;;;21.90;67.90;;;;;;6258130;28;89055;-72
2022/04/11 00:37:00;;;;;;;11.30;10.20;;;21.90;67.90;;;;;;6252596;28;88034;-72
2022/04/11 00:40:02;;;;;;;11.30;10.20;;;21.90;68.00;;;;;;6254042;28;88329;-72
2022/04/11 00:43:04;;;;;;;10.80;9.70;;;21.90;67.90;;;;;;6257371;28;89082;-72
2022/04/11 00:46:08;;;;;;;10.60;9.50;;;21.90;67.90;;;;;;6258422;28;89104;-72
2022/04/11 00:49:10;;;;;;;11.15;10.05;;;21.80;67.80;;;;;;6256287;27;90030;-72
2022/04/11 00:52:14;;;;;;;10.77;9.70;;;21.90;67.90;;;;;;6259627;27;88122;-72
2022/04/11 00:55:19;;;;;;;10.85;9.75;;;21.90;67.90;;;;;;6258543;28;87885;-71
2022/04/11 00:58:22;;;;;;;10.60;9.60;;;21.90;67.90;;;;;;6249390;28;89536;-72
2022/04/11 01:01:25;;;;;;;10.50;9.50;;;21.90;67.90;;;;;;6256274;28;88037;-71
2022/04/11 01:04:27;;;;;;;10.30;9.30;;;21.80;67.80;;;;;;6257613;28;89361;-72
2022/04/11 01:07:31;;;;;;;9.75;8.82;;;21.80;67.80;;;;;;6256509;28;89476;-72
2022/04/11 01:10:33;;;;;;;10.32;9.35;;;21.80;67.80;;;;;;6248713;28;88376;-71
2022/04/11 01:13:35;;;;;;;10.40;9.38;;;21.80;67.80;;;;;;6250895;28;89055;-71
2022/04/11 01:16:37;;;;;;;10.38;9.38;;;21.80;67.80;;;;;;6254736;28;89356;-71
2022/04/11 01:19:39;;;;;;;9.70;8.80;;;21.90;67.80;;;;;;6248765;28;90062;-72
2022/04/11 01:22:43;;;;;;;9.57;8.68;;;21.80;67.70;;;;;;6256199;28;89037;-72
2022/04/11 01:25:50;;;;;;;9.70;8.77;;;21.80;67.70;;;;;;6257657;28;89441;-72
2022/04/11 01:28:53;;;;;;;9.82;8.82;;;21.80;67.70;;;;;;6256685;28;89113;-71
2022/04/11 01:31:55;;;;;;;9.68;8.77;;;21.80;67.80;;;;;;6259007;27;89221;-73
2022/04/11 01:34:57;;;;;;;9.13;8.23;;;21.80;67.70;;;;;;6257274;28;89159;-71
2022/04/11 01:38:01;;;;;;;9.10;8.20;;;21.80;67.70;;;;;;6256917;28;89161;-72
2022/04/11 01:41:04;;;;;;;9.18;8.27;;;21.80;67.70;;;;;;6251751;27;88363;-71
2022/04/11 01:44:06;;;;;;;9.40;8.50;;;21.80;67.70;;;;;;6252122;28;89270;-73
2022/04/11 01:47:08;;;;;;;9.30;8.40;;;21.80;67.70;;;;;;6254857;27;89924;-72
2022/04/11 01:50:11;;;;;;;9.00;8.20;;;21.80;67.70;;;;;;6250468;27;90342;-71
2022/04/11 01:53:16;;;;;;;9.10;8.20;;;21.70;67.70;;;;;;6255486;28;89141;-72
2022/04/11 01:56:18;;;;;;;9.30;8.43;;;21.70;67.60;;;;;;6250862;27;89175;-72
2022/04/11 01:59:20;;;;;;;8.93;8.02;;;21.70;67.60;;;;;;6247101;27;89467;-73
2022/04/11 02:02:23;;;;;;;8.68;7.88;;;21.70;67.60;;;;;;6255145;28;89134;-72
2022/04/11 02:05:25;;;;;;;8.43;7.63;;;21.70;67.60;;;;;;6257545;28;89224;-72
2022/04/11 02:08:28;;;;;;;8.32;7.53;;;21.70;67.60;;;;;;6244420;28;89121;-72
2022/04/11 02:11:30;;;;;;;8.43;7.63;;;21.70;67.60;;;;;;6244159;28;87525;-72
2022/04/11 02:14:32;;;;;;;7.80;7.10;;;21.70;67.50;;;;;;6249990;28;89085;-72
2022/04/11 02:17:34;;;;;;;8.02;7.22;;;21.70;67.60;;;;;;6257251;27;89298;-72
2022/04/11 02:20:36;;;;;;;8.38;7.57;;;21.70;67.60;;;;;;6252969;28;88993;-73
2022/04/11 02:23:39;;;;;;;7.72;7.03;;;21.70;67.60;;;;;;6236785;28;89299;-72
2022/04/11 02:26:41;;;;;;;8.00;7.20;;;21.70;67.60;;;;;;6247703;28;89219;-73
2022/04/11 02:29:43;;;;;;;7.30;6.60;;;21.70;67.60;;;;;;6258333;28;88997;-72
2022/04/11 02:32:46;;;;;;;7.40;6.70;;;21.70;67.60;;;;;;6255479;28;88270;-73
2022/04/11 02:35:48;;;;;;;7.45;6.75;;;21.70;67.60;;;;;;6257172;28;89118;-72
2022/04/11 02:38:51;;;;;;;7.40;6.70;;;21.60;67.50;;;;;;6250009;28;89168;-71
2022/04/11 02:41:53;;;;;;;7.22;6.53;;;21.60;67.50;;;;;;6250605;28;88322;-72
2022/04/11 02:44:55;;;;;;;7.20;6.50;;;21.60;67.40;;;;;;6250914;28;89144;-72
2022/04/11 02:47:57;;;;;;;6.95;6.32;;;21.70;67.60;;;;;;6244927;28;88943;-72
2022/04/11 02:50:59;;;;;;;7.30;6.70;;;21.60;67.50;;;;;;6245464;28;90049;-73
2022/04/11 02:54:07;;;;;;;7.05;6.40;;;21.60;67.40;;;;;;6257620;28;89091;-72
2022/04/11 02:57:09;;;;;;;7.05;6.35;;;21.70;68.40;;;;;;6256098;28;89171;-72
2022/04/11 03:00:14;;;;;;;6.85;6.25;;;21.60;67.40;;;;;;6254888;28;89098;-72
2022/04/11 03:03:16;;;;;;;6.60;6.00;;;21.60;67.40;;;;;;6255005;28;89069;-72
2022/04/11 03:06:18;;;;;;;6.40;5.80;;;21.60;67.30;;;;;;6254737;28;89340;-72
2022/04/11 03:09:21;;;;;;;6.43;5.82;;;21.60;67.30;;;;;;6255793;28;89365;-73
2022/04/11 03:12:25;;;;;;;6.72;6.03;;;21.60;67.30;;;;;;6255260;28;88277;-72
2022/04/11 03:15:27;;;;;;;6.18;5.63;;;21.60;67.30;;;;;;6256817;28;89407;-71
2022/04/11 03:18:29;;;;;;;6.47;5.88;;;21.60;67.30;;;;;;6245343;28;88988;-71
2022/04/11 03:21:31;;;;;;;6.43;5.82;;;21.60;67.30;;;;;;6253686;28;90086;-72
2022/04/11 03:24:34;;;;;;;6.30;5.70;;;21.60;67.40;;;;;;6243728;27;89118;-71
2022/04/11 03:27:36;;;;;;;5.78;5.28;;;21.60;67.20;;;;;;6243624;28;89377;-72
2022/04/11 03:30:38;;;;;;;6.00;5.50;;;21.50;67.10;;;;;;6255557;27;89006;-72
2022/04/11 03:33:40;;;;;;;5.65;5.15;;;21.50;67.20;;;;;;6253885;28;88646;-73
2022/04/11 03:36:43;;;;;;;5.55;5.05;;;21.50;67.20;;;;;;6255787;27;89474;-71
2022/04/11 03:39:46;;;;;;;5.75;5.25;;;21.60;67.20;;;;;;6255651;28;89249;-71
2022/04/11 03:42:48;;;;;;;5.30;4.80;;;21.60;67.20;;;;;;6255928;28;88409;-72
2022/04/11 03:45:51;;;;;;;5.57;5.07;;;21.60;67.10;;;;;;6256006;27;90186;-71
2022/04/11 03:48:53;;;;;;;5.45;4.95;;;21.60;66.90;;;;;;6254324;28;89059;-71
2022/04/11 03:51:55;;;;;;;5.40;4.90;;;21.60;66.90;;;;;;6253553;28;89985;-72
2022/04/11 03:54:58;;;;;;;5.30;4.80;;;21.60;66.70;;;;;;6247812;28;89145;-71
2022/04/11 03:58:00;;;;;;;4.95;4.55;;;21.60;66.70;;;;;;6243859;28;88988;-72
2022/04/11 04:01:02;;;;;;;5.30;4.80;;;21.70;66.70;;;;;;6247854;28;89002;-71
2022/04/11 04:04:05;;;;;;;5.10;4.60;;;21.60;66.60;;;;;;6243169;27;89105;-72
2022/04/11 04:07:06;;;;;;;4.85;4.40;;;21.70;66.60;;;;;;6253822;28;89243;-72
2022/04/11 04:10:10;;;;;;;4.55;4.15;;;21.60;66.40;;;;;;6233182;27;89087;-71
2022/04/11 04:13:12;;;;;;;5.20;4.70;;;21.70;66.40;;;;;;6237645;28;88471;-72
2022/04/11 04:16:15;;;;;;;4.72;4.32;;;21.70;66.40;;;;;;6255336;28;89074;-71
2022/04/11 04:19:16;;;;;;;4.85;4.45;;;21.70;66.40;;;;;;6256359;28;89151;-72
2022/04/11 04:22:18;;;;;;;4.72;4.32;;;21.70;66.30;;;;;;6247417;28;90111;-72
2022/04/11 04:25:22;;;;;;;4.65;4.25;;;21.70;66.20;;;;;;6249246;28;89225;-72
2022/04/11 04:28:24;;;;;;;4.40;4.00;;;21.70;66.20;;;;;;6252394;28;88961;-71
2022/04/11 04:31:26;;;;;;;4.60;4.20;;;21.70;66.10;;;;;;6250279;28;87945;-71
2022/04/11 04:34:30;;;;;;;4.50;4.10;;;21.70;66.10;;;;;;6252159;28;89024;-72
2022/04/11 04:37:32;;;;;;;4.63;4.07;;;21.70;66.10;;;;;;6250390;28;89203;-71
2022/04/11 04:40:36;;;;;;;4.50;4.10;;;21.70;66.10;;;;;;6251991;28;89076;-72
2022/04/11 04:43:38;;;;;;;4.35;3.95;;;21.70;66.00;;;;;;6250805;28;87279;-72
2022/04/11 04:46:40;;;;;;;4.20;3.80;;;21.80;66.10;;;;;;6250820;27;88006;-72
2022/04/11 04:49:41;;;;;;;4.18;3.80;;;21.70;66.00;;;;;;6249386;27;89668;-72
2022/04/11 04:52:43;;;;;;;4.07;3.78;;;21.70;65.90;;;;;;6251140;28;90065;-72
2022/04/11 04:55:47;;;;;;;4.28;3.88;;;21.80;66.10;;;;;;6242944;27;89311;-72
2022/04/11 04:58:51;;;;;;;3.78;3.40;;;21.80;66.00;;;;;;6241361;28;89074;-70
2022/04/11 05:01:52;;;;;;;3.97;3.63;;;21.80;66.10;;;;;;6256346;28;89527;-69
2022/04/11 05:04:54;;;;;;;3.92;3.53;;;21.80;66.30;;;;;;6264272;27;88104;-70
2022/04/11 05:07:56;;;;;;;3.90;3.60;;;21.80;66.40;;;;;;6256886;27;89084;-71
2022/04/11 05:11:00;;;;;;;3.80;3.50;;;21.80;66.50;;;;;;6267524;27;89337;-71
2022/04/11 05:14:02;;;;;;;3.78;3.47;;;21.80;66.60;;;;;;6256741;27;87607;-71
2022/04/11 05:17:05;;;;;;;3.40;3.10;;;21.80;66.70;;;;;;6256758;27;89124;-71
2022/04/11 05:20:09;;;;;;;4.22;3.30;;;21.90;66.70;;;;;;6263951;27;89101;-71
2022/04/11 05:23:11;;;;;;;3.80;3.50;;;21.80;66.60;;;;;;6257705;27;90000;-71
2022/04/11 05:26:14;;;;;;;4.75;3.38;;;21.90;66.70;;;;;;6257456;27;89079;-72
2022/04/11 05:29:16;;;;;;;3.42;3.13;;;21.90;66.70;;;;;;6255931;28;89358;-70
2022/04/11 05:32:19;;;;;;;3.45;3.15;;;21.90;66.60;;;;;;6243854;28;87976;-72
2022/04/11 05:35:21;;;;;;;3.78;3.20;;;21.90;66.40;;;;;;6257276;27;89174;-71
2022/04/11 05:38:23;;;;;;;3.47;3.17;;;21.90;66.40;;;;;;6233458;28;89167;-71
2022/04/11 05:41:26;;;;;;;3.30;3.00;;;21.90;66.40;;;;;;6254508;28;89101;-71
2022/04/11 05:44:28;;;;;;;3.40;3.10;;;21.90;66.40;;;;;;6256711;28;88371;-71
2022/04/11 05:47:30;;;;;;;3.60;3.30;;;21.90;66.40;;;;;;6254857;27;89044;-70
2022/04/11 05:50:32;;;;;;;3.42;3.13;;;21.90;66.40;;;;;;6248297;28;89094;-71
2022/04/11 05:53:34;;;;;;;3.35;2.95;;;21.90;66.40;;;;;;6258693;27;90568;-71
2022/04/11 05:56:39;;;;;;;3.03;2.72;;;21.90;66.40;;;;;;6257349;27;87505;-71
2022/04/11 05:59:41;;;;;;;3.15;2.90;;;21.90;66.40;;;;;;6257329;28;88056;-71
2022/04/11 06:02:43;;;;;;;3.70;3.10;;;21.90;66.40;;;;;;6258376;28;89161;-71
2022/04/11 06:05:45;;;;;;;3.25;2.95;;;22.00;66.40;;;;;;6257908;27;89420;-71
2022/04/11 06:08:47;;;;;;;3.38;3.08;;;21.90;66.30;;;;;;6246804;28;89157;-70
2022/04/11 06:11:51;;;;;;;3.55;3.08;;;22.00;66.40;;;;;;6249888;27;87994;-71
2022/04/11 06:14:54;;;;;;;2.90;2.70;;;22.00;66.50;;;;;;6248955;28;88410;-70
2022/04/11 06:17:56;;;;;;;3.75;3.00;;;22.00;66.50;;;;;;6252132;27;89064;-70
2022/04/11 06:20:58;;;;;;;3.30;3.00;;;22.00;66.60;;;;;;6254942;27;89415;-72
2022/04/11 06:24:00;;;;;;;2.95;2.65;;;22.00;66.50;;;;;;6257461;28;89993;-71
2022/04/11 06:27:03;;;;;;;3.35;3.05;;;22.00;66.60;;;;;;6257063;27;88008;-72
2022/04/11 06:30:07;;;;;;;3.42;2.65;;;22.00;66.60;;;;;;6237353;28;89305;-71
2022/04/11 06:33:09;;;;;;;2.90;2.63;;;22.00;66.60;;;;;;6245106;28;89080;-71
2022/04/11 06:36:11;;;;;;;3.38;2.83;;;22.00;66.60;;;;;;6244756;28;89128;-70
2022/04/11 06:39:13;;;;;;;3.28;2.97;;;22.10;66.70;;;;;;6255194;27;89103;-71
2022/04/11 06:42:17;;;;;;;4.07;2.80;;;22.10;66.70;;;;;;6254988;28;89088;-71
2022/04/11 06:45:18;;;;;;;3.78;2.90;;;22.00;66.60;;;;;;6254873;28;88875;-71
2022/04/11 06:48:20;;;;;;;2.95;2.65;;;22.10;66.70;;;;;;6255386;27;89337;-70
2022/04/11 06:51:22;;;;;;;3.00;2.70;;;22.10;66.70;;;;;;6256076;27;89168;-71
2022/04/11 06:54:25;;;;;;;3.00;2.70;;;22.10;66.70;;;;;;6249360;27;90502;-71
2022/04/11 06:57:29;;;;;;;3.20;2.70;;;22.10;66.70;;;;;;6253336;28;89355;-71
2022/04/11 07:00:31;;;;;;;3.13;2.83;;;22.20;66.70;;;;;;6254769;27;89274;-70
2022/04/11 07:03:33;;;;;;;2.92;2.63;;;22.20;66.70;;;;;;6255453;28;89140;-71
2022/04/11 07:06:35;;;;;;;2.70;2.50;;;22.20;66.60;;;;;;6256555;28;89596;-71
2022/04/11 07:09:37;;;;;;;2.58;2.38;;;22.20;66.70;;;;;;6254831;27;89064;-71
2022/04/11 07:12:41;;;;;;;3.05;2.63;;;22.20;66.70;;;;;;6255988;27;89161;-71
2022/04/11 07:15:43;;;;;;;2.70;2.50;;;22.20;66.60;;;;;;6256423;27;88318;-69
2022/04/11 07:18:45;;;;;;;3.05;2.60;;;22.20;66.60;;;;;;6254609;27;88328;-70
2022/04/11 07:21:47;;;;;;;2.70;2.50;;;22.20;66.60;;;;;;6257737;28;89317;-71
2022/04/11 07:24:49;;;;;;;2.80;2.60;;;22.30;66.70;;;;;;6243069;28;89984;-70
2022/04/11 07:27:56;;;;;;;2.28;2.08;;;22.30;66.70;;;;;;6254523;28;89082;-70
2022/04/11 07:30:58;;;;;;;2.45;2.25;;;22.30;66.70;;;;;;6255062;28;89747;-70
2022/04/11 07:34:01;;;;;;;2.38;2.17;;;22.20;66.70;;;;;;6254778;28;89122;-71
2022/04/11 07:37:04;;;;;;;2.55;2.30;;;22.30;66.70;;;;;;6256008;27;89183;-70
2022/04/11 07:40:08;;;;;;;2.60;2.40;;;22.30;66.70;;;;;;6255688;28;87766;-70
2022/04/11 07:43:11;;;;;;;3.13;2.42;;;22.30;66.80;;;;;;6255858;28;88015;-70
2022/04/11 07:46:13;;;;;;;3.35;2.60;;;22.30;66.80;;;;;;6256718;28;88384;-70
2022/04/11 07:49:15;;;;;;;2.65;2.35;;;22.30;66.90;;;;;;6255480;28;89396;-70
2022/04/11 07:52:18;;;;;;;2.60;2.30;;;22.30;66.90;;;;;;6243531;28;89179;-70
2022/04/11 07:55:20;;;;;;;2.20;2.00;;;22.30;66.90;;;;;;6242969;28;90028;-70
2022/04/11 07:58:23;;;;;;;2.30;2.10;;;22.30;66.80;;;;;;6256161;28;89360;-71
2022/04/11 08:01:27;;;;;;;2.45;2.25;;;22.30;66.90;;;;;;6258552;28;89152;-70
2022/04/11 08:04:29;;;;;;;2.67;2.40;;;22.30;66.90;;;;;;6259657;27;89932;-71
2022/04/11 08:07:32;;;;;;;2.72;2.50;;;22.30;66.90;;;;;;6257219;28;90406;-71
2022/04/11 08:10:34;;;;;;;2.50;2.30;;;22.40;66.90;;;;;;6259074;28;88968;-70
2022/04/11 08:13:38;;;;;;;2.60;2.40;;;22.40;66.90;;;;;;6258045;27;88313;-71
2022/04/11 08:16:40;;;;;;;2.67;2.30;;;22.30;66.90;;;;;;6248603;28;88707;-70
2022/04/11 08:19:42;;;;;;;2.50;2.30;;;22.40;67.00;;;;;;6258841;28;88011;-70
2022/04/11 08:22:44;;;;;;;2.45;2.22;;;22.40;67.00;;;;;;6259127;27;89369;-71
2022/04/11 08:25:48;;;;;;;2.38;2.17;;;22.40;67.10;;;;;;6257911;28;88923;-71
2022/04/11 08:28:51;;;;;;;2.53;2.00;;;22.40;67.10;;;;;;6257949;27;89201;-70
2022/04/11 08:31:53;;;;;;;2.53;2.33;;;22.40;67.10;;;;;;6247323;28;89444;-70
2022/04/11 08:34:55;;;;;;;2.30;2.10;;;22.40;67.10;;;;;;6258067;28;89116;-71
2022/04/11 08:37:57;;;;;;;2.10;1.90;;;22.30;67.00;;;;;;6247643;28;88354;-70
2022/04/11 08:41:03;;;;;;;2.33;2.03;;;22.40;67.10;;;;;;6259800;27;89409;-71
2022/04/11 08:44:07;;;;;;;1.90;1.80;;;22.40;67.10;;;;;;6260236;28;89051;-70
2022/04/11 08:47:09;;;;;;;2.50;1.92;;;22.40;67.10;;;;;;6258666;28;88317;-70
2022/04/11 08:50:13;;;;;;;2.03;1.90;;;22.30;67.10;;;;;;6246849;28;88074;-71
2022/04/11 08:53:15;;;;;;;2.35;2.05;;;22.40;67.20;;;;;;6258644;28;89559;-70
2022/04/11 08:56:17;;;;;;;2.17;1.98;;;22.40;67.20;;;;;;6254547;28;90115;-70
2022/04/11 08:59:20;;;;;;;2.10;1.90;;;22.40;67.10;;;;;;6249150;28;89183;-71
2022/04/11 09:02:32;;;;;;;2.22;2.03;;;22.40;67.20;;;;;;6258895;27;89202;-70
2022/04/11 09:05:34;;;;;;;2.33;2.05;;;22.40;67.10;;;;;;6243741;27;88183;-71
2022/04/11 09:08:40;;;;;;;2.33;2.13;;;22.40;67.10;;;;;;6249346;28;89260;-71
2022/04/11 09:11:42;;;;;;;2.35;1.88;;;22.40;67.20;;;;;;6244867;28;89101;-70
2022/04/11 09:14:52;;;;;;;2.05;1.85;;;22.40;67.20;;;;;;6235510;28;88940;-70
2022/04/11 09:17:56;;;;;;;2.00;1.90;;;22.40;67.20;;;;;;6258443;28;88401;-71
2022/04/11 09:20:58;;;;;;;1.90;1.80;;;22.40;67.20;;;;;;6246182;27;90630;-72
2022/04/11 09:24:15;;;;;;;2.35;2.00;;;22.50;67.20;;;;;;6258769;28;88990;-70
2022/04/11 09:27:24;;;;;;;2.03;1.80;;;22.40;67.20;;;;;;6256988;28;90248;-70
2022/04/11 09:30:31;;;;;;;1.83;1.70;;;22.40;67.20;;;;;;6255572;28;89042;-70
2022/04/11 09:33:39;;;;;;;2.80;1.80;;;22.50;67.20;;;;;;6254510;28;89129;-72
2022/04/11 09:36:49;;;;;;;2.88;2.00;;;22.50;67.20;;;;;;6258523;28;90393;-70
2022/04/11 09:39:56;;;;;;;1.70;1.58;;;22.40;67.10;;;;;;6256609;28;89235;-71
2022/04/11 09:42:59;;;;;;;1.95;1.75;;;22.50;67.20;;;;;;6256842;27;89101;-71
2022/04/11 09:46:04;;;;;;;1.88;1.70;;;22.50;67.20;;;;;;6256801;27;87862;-71
2022/04/11 09:49:07;;;;;;;2.10;1.80;;;22.50;67.20;;;;;;6249826;27;88687;-71
2022/04/11 09:52:11;;;;;;;2.03;1.83;;;22.50;67.20;;;;;;6256358;28;89266;-71
2022/04/11 09:55:14;;;;;;;1.80;1.70;;;22.50;67.20;;;;;;6250871;28;89169;-71
2022/04/11 09:58:18;;;;;;;1.83;1.70;;;22.50;67.20;;;;;;6254425;28;90318;-70
2022/04/11 10:01:23;;;;;;;1.85;1.75;;;22.50;67.30;;;;;;6256618;28;89255;-71
2022/04/11 10:04:26;;;;;;;2.28;1.70;;;22.50;67.30;;;;;;6251671;28;88898;-70
2022/04/11 10:07:28;;;;;;;2.40;1.70;;;22.50;67.30;;;;;;6251849;28;89064;-73
2022/04/11 10:10:31;;;;;;;2.00;1.80;;;22.50;67.60;;;;;;6258135;27;89428;-78
2022/04/11 10:13:36;;;;;;;5.85;2.92;;;22.50;67.70;;;;;;6256091;28;89119;-74
2022/04/11 10:16:43;;;;;;;2.78;2.10;;;22.50;72.80;;;;;;6257064;27;89204;-73
2022/04/11 10:19:48;;;;;;;2.40;1.85;;;22.60;70.20;;;;;;6256907;28;88323;-73
2022/04/11 10:22:56;;;;;;;3.40;1.90;;;22.50;69.80;;;;;;6256337;28;89300;-73
2022/04/11 10:26:00;;;;;;;2.05;1.73;;;22.50;69.60;;;;;;6256758;27;89090;-75
2022/04/11 10:29:03;;;;;;;1.98;1.75;;;22.60;70.30;;;;;;6246963;28;90104;-74
2022/04/11 10:32:13;;;;;;;2.05;1.83;;;22.60;69.90;;;;;;6255447;27;89272;-74
2022/04/11 10:35:33;;;;;;;1.83;1.60;;;22.60;69.90;;;;;;6254644;27;89436;-75
2022/04/11 10:38:35;;;;;;;2.13;1.80;;;22.60;69.80;;;;;;6254978;27;89049;-74
2022/04/11 10:42:12;;;;;;;1.98;1.70;;;22.60;69.60;;;;;;6255476;27;89030;-73
2022/04/11 10:45:30;;;;;;;1.85;1.55;;;22.60;69.30;;;;;;6254571;27;89345;-73
2022/04/11 10:49:05;;;;;;;2.10;1.90;;;22.60;69.30;;;;;;6253098;27;89005;-73
2022/04/11 10:52:28;;;;;;;1.50;1.40;;;22.60;70.10;;;;;;6246398;27;88134;-73
2022/04/11 10:55:30;;;;;;;1.70;1.60;;;22.60;69.10;;;;;;6250782;27;89040;-74
2022/04/11 10:58:48;;;;;;;3.00;1.67;;;22.60;68.90;;;;;;6249167;27;89224;-74
2022/04/11 11:01:58;;;;;;;1.73;1.35;;;22.60;68.90;;;;;;6254935;28;90009;-73
2022/04/11 11:05:22;;;;;;;1.77;1.50;;;22.60;68.80;;;;;;6252845;28;89212;-74
2022/04/11 11:08:32;;;;;;;1.58;1.48;;;22.60;68.80;;;;;;6252278;28;89517;-74
2022/04/11 11:11:35;;;;;;;2.33;1.42;;;22.60;69.50;;;;;;6243848;28;89160;-74
2022/04/11 11:14:41;;;;;;;2.03;1.70;;;22.60;68.60;;;;;;6236861;28;89151;-73
2022/04/11 11:17:57;;;;;;;1.50;1.40;;;22.60;68.50;;;;;;6250615;28;87846;-74
2022/04/11 11:21:00;;;;;;;1.60;1.50;;;22.60;68.50;;;;;;6241601;28;89104;-74
2022/04/11 11:24:11;;;;;;;1.80;1.70;;;22.60;68.40;;;;;;6255369;28;89909;-73
2022/04/11 11:27:16;;;;;;;1.55;1.35;;;22.60;68.40;;;;;;6253994;28;89161;-74
2022/04/11 11:30:18;;;;;;;1.60;1.50;;;22.60;68.30;;;;;;6254994;28;88079;-74
2022/04/11 11:33:20;;;;;;;1.75;1.50;;;22.60;68.30;;;;;;6243461;27;90013;-74
2022/04/11 11:36:32;;;;;;;1.55;1.45;;;22.60;68.30;;;;;;6247510;28;89416;-74
2022/04/11 11:39:36;;;;;;;1.50;1.40;;;22.60;68.30;;;;;;6254426;28;88795;-74
2022/04/11 11:42:39;;;;;;;1.55;1.45;;;22.60;68.30;;;;;;6260082;27;89302;-74
2022/04/11 11:45:41;;;;;;;1.77;1.55;;;22.60;68.30;;;;;;6260260;27;89193;-75
2022/04/11 11:48:44;;;;;;;1.77;1.50;;;22.60;68.30;;;;;;6258443;28;89234;-75
2022/04/11 11:51:47;;;;;;;1.40;1.30;;;22.60;68.30;;;;;;6248096;28;89213;-75
2022/04/11 11:54:51;;;;;;;2.10;1.40;;;22.60;68.10;;;;;;6260012;28;88264;-75
2022/04/11 11:58:04;;;;;;;1.40;1.30;;;22.60;68.10;;;;;;6259603;27;89059;-75
2022/04/11 12:01:08;;;;;;;2.00;1.40;;;22.60;68.10;;;;;;6246840;28;89081;-72
2022/04/11 12:04:19;;;;;;;1.55;1.45;;;22.60;68.10;;;;;;6259525;27;88923;-72
2022/04/11 12:07:23;;;;;;;1.40;1.30;;;22.60;68.10;;;;;;6260738;28;89618;-73
2022/04/11 12:10:26;;;;;;;1.55;1.35;;;22.60;68.10;;;;;;6235906;28;89071;-73
2022/04/11 12:13:30;;;;;;;1.73;1.40;;;22.60;68.10;;;;;;6257955;28;89500;-72
2022/04/11 12:16:34;;;;;;;1.40;1.30;;;22.60;68.10;;;;;;6249666;28;89260;-72
2022/04/11 12:19:37;;;;;;;1.40;1.30;;;22.60;68.10;;;;;;6259176;27;89087;-73
2022/04/11 12:22:43;;;;;;;1.30;1.20;;;22.60;68.00;;;;;;6260075;27;89298;-72
2022/04/11 12:25:52;;;;;;;1.50;1.40;;;22.60;68.00;;;;;;6250638;28;88600;-73
2022/04/11 12:28:54;;;;;;;1.73;1.48;;;22.60;67.90;;;;;;6252049;28;87921;-71
2022/04/11 12:31:56;;;;;;;1.88;1.40;;;22.60;67.90;;;;;;6252812;28;88061;-72
2022/04/11 12:35:16;;;;;;;1.25;1.10;;;22.60;68.00;;;;;;6258038;27;90183;-72
2022/04/11 12:38:39;;;;;;;1.52;1.42;;;22.60;68.10;;;;;;6247170;27;89173;-72
2022/04/11 12:41:47;;;;;;;1.52;1.20;;;22.60;68.20;;;;;;6260253;28;89037;-72
2022/04/11 12:44:50;;;;;;;1.40;1.30;;;22.60;68.10;;;;;;6251425;27;89367;-72
2022/04/11 12:48:03;;;;;;;1.35;1.25;;;22.60;68.10;;;;;;6244493;28;89150;-71
2022/04/11 12:51:11;;;;;;;1.23;1.13;;;22.60;68.00;;;;;;6249105;27;89166;-72
2022/04/11 12:54:16;;;;;;;1.40;1.30;;;22.60;67.90;;;;;;6255661;27;90395;-71
2022/04/11 12:57:22;;;;;;;1.50;1.40;;;22.60;67.90;;;;;;6259649;27;88332;-72
2022/04/11 13:00:24;;;;;;;1.98;1.30;;;22.60;67.90;;;;;;6259360;28;89045;-72
2022/04/11 13:03:26;;;;;;;1.38;1.27;;;22.60;67.90;;;;;;6253170;28;89074;-72
2022/04/11 13:06:28;;;;;;;1.40;1.30;;;22.60;67.80;;;;;;6256568;28;89988;-72
2022/04/11 13:09:33;;;;;;;1.42;1.20;;;22.60;67.80;;;;;;6254850;27;89136;-72
2022/04/11 13:12:35;;;;;;;1.52;1.40;;;22.60;67.80;;;;;;6258388;27;88002;-72
2022/04/11 13:18:23;;;;;;;1.30;1.20;;;22.60;67.70;;;;;;6258678;28;88968;-71
2022/04/11 13:18:58;;;;;;;1.30;1.20;;;22.60;67.70;;;;;;6258356;28;89983;-72
2022/04/11 13:22:02;;;;;;;1.35;1.25;;;22.60;67.70;;;;;;6258116;28;89180;-72
2022/04/11 13:25:07;;;;;;;1.33;1.23;;;22.60;67.70;;;;;;6245864;27;89038;-74
2022/04/11 13:28:10;;;;;;;1.20;1.10;;;22.60;67.60;;;;;;6256697;28;89059;-74
2022/04/11 13:31:12;;;;;;;1.30;1.20;;;22.60;67.60;;;;;;6260206;27;89105;-74
2022/04/11 13:34:14;;;;;;;1.30;1.20;;;22.60;67.60;;;;;;6243389;28;89500;-74
2022/04/11 13:37:17;;;;;;;1.48;1.30;;;22.60;67.60;;;;;;6250305;27;90042;-74
2022/04/11 13:40:20;;;;;;;1.20;1.10;;;22.60;67.60;;;;;;6252251;28;89258;-74
2022/04/11 13:43:22;;;;;;;1.90;1.40;;;22.60;67.70;;;;;;6249444;28;89094;-74
2022/04/11 13:46:24;;;;;;;1.40;1.30;;;22.60;67.60;;;;;;6257775;28;89155;-74
2022/04/11 13:49:27;;;;;;;1.30;1.20;;;22.70;67.70;;;;;;6257750;27;89343;-75
2022/04/11 13:52:31;;;;;;;1.30;1.20;;;22.60;67.60;;;;;;6257396;28;89170;-73
2022/04/11 13:55:35;;;;;;;1.45;1.27;;;22.60;67.60;;;;;;6245238;27;89237;-73
2022/04/11 13:58:37;;;;;;;1.40;1.30;;;22.60;67.60;;;;;;6256865;28;88289;-75
2022/04/11 14:01:39;;;;;;;1.20;1.10;;;22.60;67.50;;;;;;6254787;28;89166;-74
2022/04/11 14:04:41;;;;;;;2.00;1.10;;;22.60;67.50;;;;;;6258603;27;89352;-75
2022/04/11 14:07:43;;;;;;;1.20;1.10;;;22.60;67.40;;;;;;6255928;28;88949;-75
2022/04/11 14:10:49;;;;;;;1.50;1.40;;;22.60;67.40;;;;;;6257126;28;89441;-75
2022/04/11 14:13:51;;;;;;;1.33;1.23;;;22.60;67.50;;;;;;6257088;28;88009;-74
2022/04/11 14:16:53;;;;;;;1.10;1.00;;;22.60;67.40;;;;;;6256517;28;89072;-74
2022/04/11 14:19:55;;;;;;;1.85;1.00;;;22.60;67.40;;;;;;6256691;27;89513;-75
2022/04/11 14:22:57;;;;;;;1.38;1.20;;;22.60;67.40;;;;;;6234596;28;89118;-75
2022/04/11 14:26:00;;;;;;;1.25;1.15;;;22.60;67.40;;;;;;6240481;28;89057;-75
2022/04/11 14:29:02;;;;;;;1.20;1.10;;;22.70;67.40;;;;;;6257467;28;88455;-74
2022/04/11 14:32:05;;;;;;;1.15;1.05;;;22.60;67.20;;;;;;6256444;27;89188;-75
2022/04/11 14:35:08;;;;;;;1.00;0.90;;;22.70;67.40;;;;;;6257759;27;89173;-74
2022/04/11 14:38:11;;;;;;;1.20;1.10;;;22.60;67.40;;;;;;6254085;28;90127;-74
2022/04/11 14:41:14;;;;;;;1.20;1.10;;;22.60;67.30;;;;;;6255505;27;89459;-75
2022/04/11 14:44:16;;;;;;;1.30;1.20;;;22.60;67.30;;;;;;6255993;28;89204;-75
2022/04/11 14:47:18;;;;;;;1.20;1.10;;;22.60;67.30;;;;;;6256192;27;89410;-75
2022/04/11 14:50:21;;;;;;;1.15;0.95;;;22.60;67.40;;;;;;6254776;27;89078;-75
2022/04/11 14:53:23;;;;;;;1.27;1.17;;;22.60;67.30;;;;;;6251836;27;89039;-75
2022/04/11 14:56:26;;;;;;;2.08;1.35;;;22.60;67.40;;;;;;6239959;27;89077;-75
2022/04/11 14:59:29;;;;;;;1.30;1.20;;;22.60;67.50;;;;;;6241643;28;88530;-72
2022/04/11 15:02:31;;;;;;;1.15;1.05;;;22.60;68.00;;;;;;6248007;27;87879;-72
2022/04/11 15:05:34;;;;;;;1.48;1.17;;;22.60;67.40;;;;;;6247157;28;88290;-71
2022/04/11 15:08:36;;;;;;;1.08;1.00;;;22.70;67.60;;;;;;6244214;27;89944;-71
2022/04/11 15:11:40;;;;;;;1.27;1.13;;;22.70;67.60;;;;;;6241854;28;88982;-74
2022/04/11 15:14:42;;;;;;;1.15;1.00;;;22.70;67.60;;;;;;6241111;28;89158;-72
2022/04/11 15:17:44;;;;;;;1.10;1.00;;;22.70;67.70;;;;;;6244145;28;89374;-71
2022/04/11 15:20:46;;;;;;;1.20;1.10;;;22.60;67.70;;;;;;6242088;27;89164;-72
2022/04/11 15:23:48;;;;;;;0.95;0.95;;;22.70;67.70;;;;;;6246325;28;89478;-71
2022/04/11 15:26:52;;;;;;;1.10;1.00;;;22.70;67.70;;;;;;6244712;28;89297;-72
2022/04/11 15:29:54;;;;;;;1.13;1.02;;;22.70;67.90;;;;;;6241947;28;88341;-71
2022/04/11 15:32:57;;;;;;;1.08;0.98;;;22.70;67.90;;;;;;6241228;28;89334;-71
2022/04/11 15:35:59;;;;;;;0.93;0.93;;;22.60;67.90;;;;;;6239116;28;87991;-72
2022/04/11 15:39:03;;;;;;;1.00;0.90;;;22.70;68.00;;;;;;6242942;27;90098;-72
2022/04/11 15:42:07;;;;;;;0.88;0.88;;;22.60;67.90;;;;;;6241450;28;89094;-72
2022/04/11 15:45:10;;;;;;;1.13;1.02;;;22.60;67.90;;;;;;6247943;27;87985;-72
2022/04/11 15:48:12;;;;;;;1.10;1.00;;;22.60;68.00;;;;;;6243591;28;88121;-72
2022/04/11 15:51:14;;;;;;;1.15;1.05;;;22.70;68.10;;;;;;6243390;28;89447;-71
2022/04/11 15:54:16;;;;;;;0.98;0.90;;;22.70;68.00;;;;;;6242071;28;88074;-71